Needville, Texas
Current Conditions -  °F | °C
As of 6:53 PM on Tuesday 25 Nov 2014 (Local Time) from KSGR Reporting Station
Clear Clear  
Wind Chill: 48°   Ceiling: Unl
Heat Index: 48°   Visibility: 10mi
Dew Point: 37°   Wind: 0mph
Humidity: 66%   Direction: NA
Pressure: 30.24"   Gusts: NA
Location:  29.4°N, 95.84°W
Report Text: KSGR 260053Z AUTO 00000KT 10SM CLR 09/03 A3024 RMK AO2 SLP243 T00890028
Loading
Personal Weather Stations






























Interactive Weather Map New forecast layout! Learn more

10-Day Weather Forecast

Advertisements
Track Severe Weather on mobile